logo
Search for airport 
image banner adimage banner adimage banner ad
image banner ad

SIYG - Gorduras E Margarinas Especiais - Gme

Located in Fortaleza, Brazil

ICAO - SIYG, IATA -

Data provided by Airmate  

General information

Coordinates: S3°43'9" W38°28'27"
Elevation is 78 feet MSL.
Magnetic variation is -21° East
View others Airports in Ceará

Operational data

Special qualification required
Current time UTC:
Current local time:
Weather at : SBFZ - Fortaleza / Pinto Martins ( 9 km )
METAR: SBFZ 131700Z 08008KT 9999 VCSH SCT023 FEW030TCU BKN090 29/26 Q1009
TAF: TAF SBFZ 131652Z 1318/1418 08010KT 9999 SCT020 FEW025TCU TX31/1318Z TN26/1409Z TEMPO 1318/1321 4000 TSRA BKN015 FEW025CB BECMG 1321/1323 12005KT FEW020 BECMG 1401/1403 18005KT 7000 RA SCT015 BKN020 FEW030TCU BECMG 1404/1406 23003KT 9999 NSW BECMG 1412/1414 16007KT BECMG 1414/1416 08010KT BKN025 FEW030TCU RMK PFV
View NOTAMs / SUP AIP / TFR affecting this airport [VIEW]
Communications frequencies: [VIEW]

Runways:

Airport contact information

Address: Fortaleza Brazil

Satellite view of SIYG